Aviation Digital Data Service (ADDS)

Output produced by METARs form (0605 UTC 01 November 2014)
found at http://aviationweather.gov/adds/metars/
 
KAEX 010520Z 0106/0206 36006KT P6SM SKC 
     FM011500 03010KT P6SM SKC 
     FM020100 VRB03KT P6SM SKC